createdAt,value
2018-06-11T00:01:43.620Z,67.95
2018-06-11T00:02:43.673Z,67.85
2018-06-11T00:04:36.664Z,67.95
2018-06-11T00:05:36.727Z,67.95
2018-06-11T00:07:29.725Z,67.57
2018-06-11T00:08:29.779Z,67.47
2018-06-11T00:10:22.774Z,67.28
2018-06-11T00:11:22.838Z,67.38
2018-06-11T00:13:15.836Z,67.28
2018-06-11T00:14:15.894Z,67.38
2018-06-11T00:16:08.884Z,67.47
2018-06-11T00:17:08.948Z,67.09
2018-06-11T00:19:01.950Z,67.09
2018-06-11T00:20:02.005Z,67.18
2018-06-11T00:21:55.001Z,66.99
2018-06-11T00:22:55.090Z,67.18
2018-06-11T00:24:48.047Z,66.96
2018-06-11T00:25:48.113Z,67.28
2018-06-11T00:27:41.109Z,67.38
2018-06-11T00:28:41.166Z,66.89
2018-06-11T00:30:34.154Z,67.28
2018-06-11T00:31:34.219Z,67.54
2018-06-11T00:33:27.218Z,66.86
2018-06-11T00:34:27.272Z,67.18
2018-06-11T00:36:20.262Z,67.05
2018-06-11T00:37:20.328Z,67.05
2018-06-11T00:39:13.369Z,67.05
2018-06-11T00:40:13.382Z,66.96
2018-06-11T00:42:06.374Z,67.34
2018-06-11T00:43:06.439Z,67.25
2018-06-11T00:44:59.434Z,66.67
2018-06-11T00:45:59.493Z,66.58
2018-06-11T00:47:52.488Z,66.77
2018-06-11T00:48:52.547Z,66.96
2018-06-11T00:50:45.534Z,66.96
2018-06-11T00:51:45.598Z,66.58
2018-06-11T00:53:38.598Z,66.25
2018-06-11T00:54:38.654Z,66.45
2018-06-11T00:56:31.648Z,66.45
2018-06-11T00:57:31.714Z,66.25
2018-06-11T00:59:25.226Z,66.38
2018-06-11T01:00:25.276Z,66.38
2018-06-11T01:02:18.270Z,66.19
2018-06-11T01:03:18.335Z,66.19
2018-06-11T01:05:11.336Z,66.38
2018-06-11T01:06:11.391Z,66.48
2018-06-11T01:08:04.440Z,66.38
2018-06-11T01:09:04.456Z,66.00
2018-06-11T01:10:57.452Z,66.16
2018-06-11T01:11:57.512Z,65.91
2018-06-11T01:13:50.519Z,66.58
2018-06-11T01:14:50.570Z,66.09
2018-06-11T01:16:43.560Z,66.25
2018-06-11T01:17:43.625Z,66.19
2018-06-11T01:19:36.627Z,66.58
2018-06-11T01:20:36.684Z,66.25
2018-06-11T01:22:29.674Z,66.67
2018-06-11T01:23:29.738Z,66.58
2018-06-11T01:25:22.740Z,66.77
2018-06-11T01:26:22.798Z,66.48
2018-06-11T01:28:15.788Z,66.64
2018-06-11T01:29:15.853Z,66.67
2018-06-11T01:31:08.856Z,66.38
2018-06-11T01:32:08.914Z,66.48
2018-06-11T01:34:01.903Z,66.67
2018-06-11T01:35:01.967Z,66.16
2018-06-11T01:36:54.967Z,66.06
2018-06-11T01:37:55.022Z,66.06
2018-06-11T01:39:48.024Z,66.09
2018-06-11T01:40:48.084Z,66.06
2018-06-11T01:42:41.077Z,65.97
2018-06-11T01:43:41.140Z,65.88
2018-06-11T01:45:34.141Z,65.88
2018-06-11T01:46:34.198Z,65.78
2018-06-11T01:48:27.194Z,66.54
2018-06-11T01:49:27.254Z,66.35
2018-06-11T01:51:20.253Z,66.58
2018-06-11T01:52:20.309Z,66.45
2018-06-11T01:54:13.308Z,66.06
2018-06-11T01:55:13.370Z,67.05
2018-06-11T01:57:06.370Z,66.86
2018-06-11T01:58:06.428Z,67.02
2018-06-11T01:59:59.425Z,67.15
2018-06-11T02:00:59.488Z,66.45
2018-06-11T02:02:52.485Z,66.35
2018-06-11T02:03:52.537Z,66.96
2018-06-11T02:05:45.557Z,66.86
2018-06-11T02:06:45.595Z,66.96
2018-06-11T02:08:38.590Z,66.45
2018-06-11T02:09:38.655Z,66.83
2018-06-11T02:11:31.654Z,67.15
2018-06-11T02:12:31.709Z,66.74
2018-06-11T02:14:24.707Z,66.77
2018-06-11T02:15:24.773Z,66.77
2018-06-11T02:17:17.770Z,66.96
2018-06-11T02:18:17.823Z,66.86
2018-06-11T02:20:10.818Z,66.48
2018-06-11T02:21:10.881Z,66.77
2018-06-11T02:23:03.878Z,66.09
2018-06-11T02:24:03.933Z,66.96
2018-06-11T02:25:56.932Z,66.77
2018-06-11T02:26:56.991Z,66.38
2018-06-11T02:28:49.989Z,66.48
2018-06-11T02:29:50.044Z,66.00
2018-06-11T02:31:43.043Z,66.67
2018-06-11T02:32:43.102Z,65.81
2018-06-11T02:34:36.085Z,66.00
2018-06-11T02:35:36.149Z,66.29
2018-06-11T02:37:29.193Z,66.00
2018-06-11T02:38:29.203Z,65.81
2018-06-11T02:40:22.194Z,66.09
2018-06-11T02:41:22.255Z,65.81
2018-06-11T02:43:15.253Z,65.71
2018-06-11T02:44:15.311Z,66.19
2018-06-11T02:46:08.306Z,65.81
2018-06-11T02:47:08.365Z,65.33
2018-06-11T02:49:01.363Z,65.42
2018-06-11T02:50:01.416Z,65.33
2018-06-11T02:51:54.414Z,65.81
2018-06-11T02:52:54.471Z,65.49
2018-06-11T02:54:47.472Z,64.82
2018-06-11T02:55:47.530Z,65.11
2018-06-11T02:57:40.527Z,64.76
2018-06-11T02:58:40.587Z,65.11
2018-06-11T03:00:33.576Z,64.82
2018-06-11T03:01:33.634Z,65.14
2018-06-11T03:03:26.636Z,65.39
2018-06-11T03:04:26.690Z,65.33
2018-06-11T03:06:19.682Z,65.14
2018-06-11T03:07:19.743Z,64.63
2018-06-11T03:09:12.740Z,65.42
2018-06-11T03:10:12.799Z,65.42
2018-06-11T03:12:05.788Z,65.01
2018-06-11T03:13:05.849Z,65.14
2018-06-11T03:14:58.848Z,64.66
2018-06-11T03:15:58.903Z,64.66
2018-06-11T03:17:51.893Z,64.95
2018-06-11T03:18:51.954Z,64.85
2018-06-11T03:20:44.955Z,65.05
2018-06-11T03:21:45.009Z,64.76
2018-06-11T03:23:38.064Z,65.42
2018-06-11T03:24:38.060Z,64.95
2018-06-11T03:26:31.048Z,65.14
2018-06-11T03:27:31.111Z,65.14
2018-06-11T03:29:24.114Z,65.33
2018-06-11T03:30:24.164Z,65.23
2018-06-11T03:32:17.161Z,65.33
2018-06-11T03:33:17.220Z,65.33
2018-06-11T03:35:10.218Z,65.14
2018-06-11T03:36:10.271Z,65.05
2018-06-11T03:38:03.268Z,65.33
2018-06-11T03:39:03.330Z,65.42
2018-06-11T03:40:56.327Z,65.14
2018-06-11T03:41:56.385Z,64.47
2018-06-11T03:43:49.382Z,64.95
2018-06-11T03:44:49.446Z,65.23
2018-06-11T03:46:42.444Z,65.05
2018-06-11T03:47:42.501Z,64.85
2018-06-11T03:49:35.505Z,64.95
2018-06-11T03:50:35.558Z,64.47
2018-06-11T03:52:28.549Z,64.95
2018-06-11T03:53:28.612Z,65.23
2018-06-11T03:55:21.611Z,64.47
2018-06-11T03:56:21.669Z,64.56
2018-06-11T03:58:14.670Z,64.95
2018-06-11T03:59:14.729Z,64.76
2018-06-11T04:01:07.728Z,65.05
2018-06-11T04:02:07.786Z,64.76
2018-06-11T04:04:00.783Z,64.76
2018-06-11T04:05:00.850Z,64.85
2018-06-11T04:06:53.850Z,64.85
2018-06-11T04:07:53.902Z,64.85
2018-06-11T04:09:46.892Z,65.71
2018-06-11T04:10:46.973Z,65.42
2018-06-11T04:12:39.963Z,64.85
2018-06-11T04:13:40.024Z,65.52
2018-06-11T04:15:33.019Z,65.23
2018-06-11T04:16:33.074Z,65.52
2018-06-11T04:18:26.064Z,64.76
2018-06-11T04:19:26.168Z,65.81
2018-06-11T04:21:19.131Z,65.23
2018-06-11T04:22:19.190Z,64.95
2018-06-11T04:24:12.176Z,64.85
2018-06-11T04:25:12.240Z,65.71
2018-06-11T04:27:05.244Z,64.95
2018-06-11T04:28:05.300Z,64.95
2018-06-11T04:29:58.304Z,65.05
2018-06-11T04:30:58.364Z,65.71
2018-06-11T04:32:51.362Z,65.23
2018-06-11T04:33:51.418Z,64.85
2018-06-11T04:35:44.407Z,65.05
2018-06-11T04:36:44.472Z,65.05
2018-06-11T04:38:37.475Z,64.85
2018-06-11T04:39:37.554Z,65.14
2018-06-11T04:41:30.535Z,65.42
2018-06-11T04:42:30.589Z,65.52
2018-06-11T04:44:23.579Z,66.77
2018-06-11T04:45:23.681Z,66.96
2018-06-11T04:47:16.647Z,66.29
2018-06-11T04:48:16.707Z,66.29
2018-06-11T04:50:09.695Z,66.48
2018-06-11T04:51:09.758Z,67.54
2018-06-11T04:53:02.759Z,67.44
2018-06-11T04:54:02.817Z,67.47
2018-06-11T04:55:55.816Z,67.95
2018-06-11T04:56:55.879Z,67.76
2018-06-11T04:58:48.879Z,68.43
2018-06-11T04:59:48.935Z,69.01
2018-06-11T05:01:41.938Z,68.43
2018-06-11T05:02:41.996Z,67.91
2018-06-11T05:04:34.991Z,68.33
2018-06-11T05:05:35.040Z,68.11
2018-06-11T05:07:28.057Z,68.05
2018-06-11T05:08:28.102Z,68.24
2018-06-11T05:10:21.096Z,68.30
2018-06-11T05:11:21.154Z,68.01
2018-06-11T05:13:14.163Z,69.26
2018-06-11T05:14:14.223Z,68.78
2018-06-11T05:16:07.231Z,68.72
2018-06-11T05:17:07.276Z,68.52
2018-06-11T05:19:00.285Z,69.01
2018-06-11T05:20:00.336Z,68.52
2018-06-11T05:21:53.834Z,69.10
2018-06-11T05:22:53.891Z,69.68
2018-06-11T05:24:46.902Z,70.09
2018-06-11T05:25:46.953Z,70.25
2018-06-11T05:27:39.971Z,71.15
2018-06-11T05:28:40.025Z,70.38
2018-06-11T05:30:32.999Z,71.34
2018-06-11T05:31:33.064Z,71.92
2018-06-11T05:33:26.073Z,71.72
2018-06-11T05:34:26.142Z,72.20
2018-06-11T05:36:19.114Z,72.53
2018-06-11T05:37:19.180Z,73.07
2018-06-11T05:39:12.183Z,72.20
2018-06-11T05:40:12.241Z,74.02
2018-06-11T05:42:05.233Z,73.77
2018-06-11T05:43:05.305Z,73.83
2018-06-11T05:44:58.307Z,73.45
2018-06-11T05:45:58.361Z,73.65
2018-06-11T05:47:51.364Z,73.16
2018-06-11T05:48:51.423Z,73.68
2018-06-11T05:50:44.431Z,73.77
2018-06-11T05:51:44.479Z,74.73
2018-06-11T05:53:37.491Z,74.35
2018-06-11T05:54:37.534Z,74.73
2018-06-11T05:56:30.532Z,74.83
2018-06-11T05:57:30.611Z,75.70
2018-06-11T05:59:23.596Z,75.70
2018-06-11T06:00:23.647Z,74.93
2018-06-11T06:02:16.656Z,75.70
2018-06-11T06:03:16.708Z,75.60
2018-06-11T06:05:09.725Z,75.98
2018-06-11T06:06:09.779Z,75.79
2018-06-11T06:08:02.769Z,76.17
2018-06-11T06:09:02.833Z,75.35
2018-06-11T06:10:55.836Z,76.98
2018-06-11T06:11:55.892Z,75.63
2018-06-11T06:13:48.891Z,76.50
2018-06-11T06:14:48.949Z,76.50
2018-06-11T06:16:41.961Z,76.88
2018-06-11T06:17:42.009Z,76.98
2018-06-11T06:19:35.016Z,77.17
2018-06-11T06:20:35.066Z,76.21
2018-06-11T06:22:28.590Z,76.84
2018-06-11T06:23:28.628Z,77.42
2018-06-11T06:25:21.628Z,76.65
2018-06-11T06:26:21.697Z,75.31
2018-06-11T06:28:14.678Z,76.56
2018-06-11T06:29:14.743Z,76.94
2018-06-11T06:31:07.743Z,77.33
2018-06-11T06:32:07.803Z,77.17
2018-06-11T06:34:00.812Z,77.56
2018-06-11T06:35:00.876Z,77.88
2018-06-11T06:36:54.877Z,78.08
2018-06-11T06:37:54.934Z,77.40
2018-06-11T06:39:47.948Z,77.78
2018-06-11T06:40:47.992Z,78.75
2018-06-11T06:42:40.998Z,77.98
2018-06-11T06:43:41.055Z,77.69
2018-06-11T06:45:34.063Z,78.08
2018-06-11T06:46:34.115Z,78.65
2018-06-11T06:48:27.118Z,78.78
2018-06-11T06:49:27.181Z,78.88
2018-06-11T06:51:20.205Z,78.11
2018-06-11T06:52:20.238Z,78.17
2018-06-11T06:54:13.240Z,78.45
2018-06-11T06:55:13.299Z,78.11
2018-06-11T06:57:06.302Z,78.02
2018-06-11T06:58:06.365Z,78.02
2018-06-11T06:59:59.358Z,78.36
2018-06-11T07:00:59.416Z,78.65
2018-06-11T07:02:52.450Z,78.78
2018-06-11T07:03:52.478Z,78.11
2018-06-11T07:05:45.485Z,79.17
2018-06-11T07:06:46.499Z,79.21
2018-06-11T07:08:38.540Z,79.21
2018-06-11T07:09:38.650Z,79.82
2018-06-11T07:11:31.604Z,80.44
2018-06-11T07:12:31.658Z,80.10
2018-06-11T07:14:24.659Z,80.23
2018-06-11T07:15:24.725Z,79.50
2018-06-11T07:17:17.723Z,79.41
2018-06-11T07:18:17.787Z,79.83
2018-06-11T07:20:10.813Z,79.33
2018-06-11T07:21:10.850Z,78.27
2018-06-11T07:23:03.861Z,76.63
2018-06-11T07:24:03.923Z,78.00
2018-06-11T07:25:56.933Z,78.91
2018-06-11T07:26:56.994Z,78.56
2018-06-11T07:28:50.009Z,67.40
2018-06-11T07:29:50.067Z,69.33
2018-06-11T07:31:43.087Z,75.72
2018-06-11T07:32:43.137Z,77.51
2018-06-11T07:34:36.147Z,77.96
2018-06-11T07:35:36.213Z,78.92
2018-06-11T07:37:29.225Z,78.88
2018-06-11T07:38:29.292Z,79.52
2018-06-11T07:40:22.286Z,79.52
2018-06-11T07:41:22.349Z,79.58
2018-06-11T07:43:15.362Z,80.68
2018-06-11T07:44:15.422Z,80.19
2018-06-11T07:46:08.429Z,79.36
2018-06-11T07:47:08.491Z,79.56
2018-06-11T07:49:01.498Z,75.68
2018-06-11T07:50:01.563Z,64.85
2018-06-11T07:51:54.559Z,61.55
2018-06-11T07:52:54.629Z,59.38
2018-06-11T07:54:47.637Z,64.37
2018-06-11T07:55:47.707Z,69.27
2018-06-11T07:57:40.717Z,67.24
2018-06-11T07:58:40.774Z,69.46
2018-06-11T08:00:33.782Z,66.78
2018-06-11T08:01:33.850Z,61.00
2018-06-11T08:03:26.878Z,58.77
2018-06-11T08:04:26.929Z,61.07
2018-06-11T08:06:19.944Z,64.75
2018-06-11T08:07:20.025Z,65.30
2018-06-11T08:09:13.033Z,67.33
2018-06-11T08:10:13.094Z,69.24
2018-06-11T08:12:06.104Z,58.54
2018-06-11T08:13:06.198Z,53.59
2018-06-11T08:14:59.191Z,53.04
2018-06-11T08:15:59.255Z,48.29
2018-06-11T08:17:52.270Z,43.63
2018-06-11T08:18:52.342Z,42.48
2018-06-11T08:20:45.379Z,41.78
2018-06-11T08:21:45.436Z,41.42
2018-06-11T08:23:38.458Z,39.45
2018-06-11T08:24:38.540Z,37.70
2018-06-11T08:26:31.548Z,38.82
2018-06-11T08:27:31.639Z,42.50
2018-06-11T08:29:24.649Z,46.47
2018-06-11T08:30:24.722Z,48.36
2018-06-11T08:32:17.742Z,47.66
2018-06-11T08:33:17.822Z,44.24
2018-06-11T08:35:10.866Z,46.10
2018-06-11T08:36:10.931Z,46.39
2018-06-11T08:38:03.952Z,44.84
2018-06-11T08:39:04.029Z,42.40
2018-06-11T08:40:57.054Z,41.74
2018-06-11T08:41:57.127Z,43.20
2018-06-11T08:43:50.167Z,40.33
2018-06-11T08:44:50.225Z,39.94
2018-06-11T08:46:43.249Z,40.50
2018-06-11T08:47:43.329Z,41.39
2018-06-11T08:49:36.359Z,39.56
2018-06-11T08:50:36.434Z,39.17
2018-06-11T08:52:29.457Z,39.07
2018-06-11T08:53:29.535Z,40.33
2018-06-11T08:55:22.570Z,41.05
2018-06-11T08:56:22.645Z,39.80
2018-06-11T08:58:15.673Z,41.27
2018-06-11T08:59:15.748Z,41.35
2018-06-11T09:01:08.795Z,43.43
2018-06-11T09:02:08.863Z,43.16
2018-06-11T09:04:01.890Z,43.67
2018-06-11T09:05:01.975Z,43.07
2018-06-11T09:06:55.006Z,41.77
2018-06-11T09:07:55.081Z,45.06
2018-06-11T09:09:48.625Z,44.46
2018-06-11T09:10:48.690Z,44.24
2018-06-11T09:12:41.712Z,41.64
2018-06-11T09:13:41.799Z,41.27
2018-06-11T09:15:34.827Z,41.33
2018-06-11T09:16:34.900Z,39.29
2018-06-11T09:18:28.076Z,37.58
2018-06-11T09:19:28.025Z,36.99
2018-06-11T09:21:21.045Z,37.52
2018-06-11T09:22:21.120Z,38.70
2018-06-11T09:24:14.142Z,39.23
2018-06-11T09:25:14.225Z,41.25
2018-06-11T09:27:07.260Z,40.72
2018-06-11T09:28:07.335Z,40.27
2018-06-11T09:30:00.376Z,41.60
2018-06-11T09:31:00.442Z,42.05
2018-06-11T09:32:53.463Z,45.37
2018-06-11T09:33:53.543Z,47.49
2018-06-11T09:35:46.579Z,54.07
2018-06-11T09:36:46.652Z,53.49
2018-06-11T09:38:39.679Z,55.21
2018-06-11T09:39:39.749Z,55.42
2018-06-11T09:41:32.776Z,58.39
2018-06-11T09:42:32.849Z,57.45
2018-06-11T09:44:25.859Z,58.72
2018-06-11T09:45:25.949Z,58.16
2018-06-11T09:47:18.960Z,56.03
2018-06-11T09:48:19.027Z,55.35
2018-06-11T09:50:12.046Z,56.41
2018-06-11T09:51:12.128Z,56.68
2018-06-11T09:53:05.148Z,57.65
2018-06-11T09:54:05.220Z,56.68
2018-06-11T09:55:58.222Z,56.32
2018-06-11T09:56:58.288Z,56.81
2018-06-11T09:58:51.301Z,56.39
2018-06-11T09:59:51.375Z,60.49
2018-06-11T10:01:44.397Z,58.94
2018-06-11T10:02:44.465Z,57.00
2018-06-11T10:04:37.475Z,57.26
2018-06-11T10:05:37.547Z,57.75
2018-06-11T10:07:30.561Z,58.42
2018-06-11T10:08:30.641Z,58.75
2018-06-11T10:10:23.641Z,63.31
2018-06-11T10:11:23.715Z,63.14
2018-06-11T10:13:16.728Z,60.52
2018-06-11T10:14:16.796Z,61.21
2018-06-11T10:16:09.830Z,60.04
2018-06-11T10:17:09.901Z,61.27
2018-06-11T10:19:02.933Z,61.46
2018-06-11T10:20:02.979Z,61.46
2018-06-11T10:21:56.502Z,62.14
2018-06-11T10:22:56.547Z,62.27
2018-06-11T10:24:49.606Z,60.40
2018-06-11T10:25:49.625Z,61.79
2018-06-11T10:27:42.637Z,61.69
2018-06-11T10:28:42.706Z,62.95
2018-06-11T10:30:35.710Z,60.24
2018-06-11T10:31:35.777Z,62.82
2018-06-11T10:33:29.303Z,61.85
2018-06-11T10:34:29.358Z,61.36
2018-06-11T10:36:22.373Z,60.08
2018-06-11T10:37:22.441Z,63.66
2018-06-11T10:39:15.456Z,64.43
2018-06-11T10:40:15.516Z,67.33
2018-06-11T10:42:08.527Z,67.85
2018-06-11T10:43:08.591Z,65.92
2018-06-11T10:45:01.599Z,65.56
2018-06-11T10:46:01.663Z,63.63
2018-06-11T10:47:54.679Z,64.01
2018-06-11T10:48:54.740Z,62.69
2018-06-11T10:50:47.743Z,63.63
2018-06-11T10:51:47.810Z,65.20
2018-06-11T10:53:40.825Z,63.82
2018-06-11T10:54:40.891Z,67.01
2018-06-11T10:56:33.894Z,67.30
2018-06-11T10:57:33.959Z,73.20
2018-06-11T10:59:26.972Z,67.14
2018-06-11T11:00:27.045Z,63.14
2018-06-11T11:02:20.052Z,66.43
2018-06-11T11:03:20.113Z,64.53
2018-06-11T11:05:13.117Z,66.47
2018-06-11T11:06:13.193Z,64.43
2018-06-11T11:08:06.193Z,64.40
2018-06-11T11:09:06.258Z,66.82
2018-06-11T11:10:59.258Z,65.37
2018-06-11T11:11:59.325Z,67.27
2018-06-11T11:13:52.339Z,67.27
2018-06-11T11:14:52.400Z,67.56
2018-06-11T11:16:45.431Z,65.40
2018-06-11T11:17:45.479Z,68.40
2018-06-11T11:19:38.494Z,71.58
2018-06-11T11:20:38.556Z,71.97
2018-06-11T11:22:32.081Z,71.39
2018-06-11T11:23:32.136Z,69.68
2018-06-11T11:25:25.146Z,68.52
2018-06-11T11:26:25.226Z,69.30
2018-06-11T11:28:18.226Z,68.75
2018-06-11T11:29:18.289Z,66.59
2018-06-11T11:31:11.294Z,67.94
2018-06-11T11:32:11.364Z,67.36
2018-06-11T11:34:04.374Z,65.27
2018-06-11T11:35:04.450Z,67.27
2018-06-11T11:36:57.949Z,64.37
2018-06-11T11:37:58.017Z,67.94
2018-06-11T11:39:51.839Z,68.62
2018-06-11T11:40:51.606Z,71.52
2018-06-11T11:42:44.648Z,70.65
2018-06-11T11:43:44.683Z,69.98
2018-06-11T11:45:37.717Z,69.88
2018-06-11T11:46:37.738Z,69.88
2018-06-11T11:48:30.742Z,66.17
2018-06-11T11:49:30.808Z,66.46
2018-06-11T11:51:23.814Z,67.91
2018-06-11T11:52:23.875Z,70.32
2018-06-11T11:54:16.887Z,68.10
2018-06-11T11:55:16.950Z,68.62
2018-06-11T11:57:09.962Z,67.27
2018-06-11T11:58:10.081Z,66.30
2018-06-11T12:00:03.048Z,67.17
2018-06-11T12:01:03.098Z,70.26
2018-06-11T12:02:56.104Z,67.40
2018-06-11T12:03:56.175Z,64.76
2018-06-11T12:05:49.180Z,65.53
2018-06-11T12:06:49.238Z,66.33
2018-06-11T12:08:42.242Z,62.37
2018-06-11T12:09:42.310Z,62.85
2018-06-11T12:11:35.315Z,66.43
2018-06-11T12:12:35.378Z,65.82
2018-06-11T12:14:28.404Z,66.50
2018-06-11T12:15:28.450Z,66.01
2018-06-11T12:17:21.463Z,69.04
2018-06-11T12:18:21.527Z,67.69
2018-06-11T12:20:14.533Z,67.21
2018-06-11T12:21:14.595Z,67.40
2018-06-11T12:23:07.595Z,69.20
2018-06-11T12:24:07.663Z,67.11
2018-06-11T12:26:00.673Z,66.30
2018-06-11T12:27:00.729Z,68.24
2018-06-11T12:28:53.735Z,70.46
2018-06-11T12:29:53.796Z,66.40
2018-06-11T12:31:46.810Z,64.85
2018-06-11T12:32:46.873Z,63.89
2018-06-11T12:34:39.879Z,69.46
2018-06-11T12:35:39.946Z,66.56
2018-06-11T12:37:32.961Z,67.33
2018-06-11T12:38:33.024Z,65.20
2018-06-11T12:40:26.037Z,64.47
2018-06-11T12:41:26.122Z,66.20
2018-06-11T12:43:19.094Z,61.27
2018-06-11T12:44:19.164Z,62.24
2018-06-11T12:46:12.171Z,62.73
2018-06-11T12:47:12.231Z,61.66
2018-06-11T12:49:05.232Z,60.79
2018-06-11T12:50:05.297Z,65.43
2018-06-11T12:51:58.305Z,65.82
2018-06-11T12:52:58.364Z,63.40
2018-06-11T12:54:51.394Z,63.31
2018-06-11T12:55:51.463Z,66.17
2018-06-11T12:57:44.473Z,64.27
2018-06-11T12:58:44.534Z,64.08
2018-06-11T13:00:38.049Z,64.56
2018-06-11T13:01:38.111Z,63.89
2018-06-11T13:03:31.116Z,63.56
2018-06-11T13:04:31.181Z,65.63
2018-06-11T13:06:24.178Z,67.56
2018-06-11T13:07:24.243Z,66.53
2018-06-11T13:09:17.252Z,66.43
2018-06-11T13:10:17.315Z,63.53
2018-06-11T13:12:10.325Z,63.14
2018-06-11T13:13:10.387Z,64.50
2018-06-11T13:15:03.391Z,64.89
2018-06-11T13:16:03.463Z,61.11
2018-06-11T13:17:56.469Z,65.24
2018-06-11T13:18:56.531Z,66.43
2018-06-11T13:20:49.538Z,65.34
2018-06-11T13:21:49.607Z,67.36
2018-06-11T13:23:42.613Z,65.63
2018-06-11T13:24:42.672Z,63.11
2018-06-11T13:26:35.676Z,63.31
2018-06-11T13:27:35.740Z,63.21
2018-06-11T13:29:28.744Z,64.27
2018-06-11T13:30:28.809Z,64.56
2018-06-11T13:32:21.841Z,65.43
2018-06-11T13:33:21.887Z,68.14
2018-06-11T13:35:14.890Z,67.46
2018-06-11T13:36:14.953Z,66.50
2018-06-11T13:38:07.957Z,67.66
2018-06-11T13:39:08.019Z,67.46
2018-06-11T13:41:01.037Z,68.66
2018-06-11T13:42:01.108Z,67.98
2018-06-11T13:43:54.111Z,64.69
2018-06-11T13:44:54.264Z,67.69
2018-06-11T13:46:47.180Z,67.59
2018-06-11T13:47:47.244Z,67.49
2018-06-11T13:49:40.256Z,66.59
2018-06-11T13:50:40.318Z,65.72
2018-06-11T13:52:33.321Z,65.72
2018-06-11T13:53:33.388Z,65.56
2018-06-11T13:55:26.395Z,65.95
2018-06-11T13:56:26.454Z,63.69
2018-06-11T13:58:19.459Z,64.66
2018-06-11T13:59:19.528Z,66.30
2018-06-11T14:01:12.524Z,64.76
2018-06-11T14:02:12.587Z,62.92
2018-06-11T14:04:05.605Z,61.79
2018-06-11T14:05:05.654Z,60.14
2018-06-11T14:06:58.658Z,63.02
2018-06-11T14:07:58.723Z,63.14
2018-06-11T14:09:51.730Z,61.60
2018-06-11T14:10:51.789Z,60.05
2018-06-11T14:12:44.793Z,61.40
2018-06-11T14:13:44.858Z,63.43
2018-06-11T14:15:37.863Z,64.21
2018-06-11T14:16:37.924Z,62.95
2018-06-11T14:18:30.920Z,64.82
2018-06-11T14:19:30.991Z,64.34
2018-06-11T14:21:23.997Z,64.92
2018-06-11T14:22:24.056Z,63.27
2018-06-11T14:24:17.097Z,62.21
2018-06-11T14:25:17.158Z,62.50
2018-06-11T14:27:10.167Z,64.04
2018-06-11T14:28:10.233Z,65.01
2018-06-11T14:30:03.237Z,65.59
2018-06-11T14:31:03.298Z,62.79
2018-06-11T14:32:56.302Z,62.72
2018-06-11T14:33:56.367Z,63.01
2018-06-11T14:35:49.374Z,64.95
2018-06-11T14:36:49.436Z,64.07
2018-06-11T14:38:42.437Z,62.72
2018-06-11T14:39:42.504Z,63.79
2018-06-11T14:41:35.520Z,63.79
2018-06-11T14:42:35.576Z,64.85
2018-06-11T14:44:28.590Z,64.95
2018-06-11T14:45:28.652Z,65.72
2018-06-11T14:47:21.677Z,63.98
2018-06-11T14:48:21.732Z,65.72
2018-06-11T14:50:14.739Z,63.89
2018-06-11T14:51:14.800Z,62.34
2018-06-11T14:53:07.805Z,63.53
2018-06-11T14:54:07.870Z,61.76
2018-06-11T14:56:00.877Z,62.46
2018-06-11T14:57:00.939Z,63.34
2018-06-11T14:58:53.939Z,59.66
2018-06-11T14:59:54.008Z,59.84
2018-06-11T15:01:47.018Z,60.43
2018-06-11T15:02:47.076Z,60.43
2018-06-11T15:04:40.089Z,60.78
2018-06-11T15:05:40.153Z,57.98
2018-06-11T15:07:33.156Z,61.18
2018-06-11T15:08:33.224Z,60.59
2018-06-11T15:10:26.230Z,59.82
2018-06-11T15:11:26.292Z,59.63
2018-06-11T15:13:19.301Z,59.53
2018-06-11T15:14:19.360Z,59.66
2018-06-11T15:16:12.371Z,60.01
2018-06-11T15:17:12.433Z,59.82
2018-06-11T15:19:05.426Z,61.82
2018-06-11T15:20:05.504Z,61.63
2018-06-11T15:21:59.018Z,62.98
2018-06-11T15:22:59.081Z,63.66
2018-06-11T15:24:52.085Z,61.72
2018-06-11T15:25:52.150Z,60.66
2018-06-11T15:27:45.165Z,61.72
2018-06-11T15:28:45.227Z,61.24
2018-06-11T15:30:38.233Z,62.30
2018-06-11T15:31:38.302Z,62.30
2018-06-11T15:33:31.299Z,64.27
2018-06-11T15:34:31.372Z,61.95
2018-06-11T15:36:24.382Z,62.40
2018-06-11T15:37:24.434Z,63.18
2018-06-11T15:39:17.436Z,64.04
2018-06-11T15:40:17.505Z,64.04
2018-06-11T15:42:10.519Z,64.53
2018-06-11T15:43:10.581Z,64.31
2018-06-11T15:45:03.582Z,64.89
2018-06-11T15:46:03.650Z,64.89
2018-06-11T15:47:56.657Z,67.33
2018-06-11T15:48:56.714Z,64.92
2018-06-11T15:50:49.721Z,64.79
2018-06-11T15:51:49.784Z,66.43
2018-06-11T15:53:42.802Z,67.21
2018-06-11T15:54:42.861Z,65.66
2018-06-11T15:56:35.868Z,66.05
2018-06-11T15:57:35.930Z,65.56
2018-06-11T15:59:28.941Z,65.85
2018-06-11T16:00:29.038Z,66.72
2018-06-11T16:02:22.009Z,64.11
2018-06-11T16:03:22.068Z,64.53
2018-06-11T16:05:15.124Z,61.72
2018-06-11T16:06:15.134Z,64.04
2018-06-11T16:08:08.140Z,63.37
2018-06-11T16:09:08.202Z,63.85
2018-06-11T16:11:01.221Z,63.37
2018-06-11T16:12:01.308Z,62.69
2018-06-11T16:13:54.280Z,62.40
2018-06-11T16:14:54.345Z,62.30
2018-06-11T16:16:47.376Z,63.95
2018-06-11T16:17:47.416Z,65.50
2018-06-11T16:19:40.467Z,63.46
2018-06-11T16:20:40.520Z,63.46
2018-06-11T16:22:34.019Z,60.75
2018-06-11T16:23:34.071Z,60.85
2018-06-11T16:25:27.071Z,62.40
2018-06-11T16:26:27.134Z,61.72
2018-06-11T16:28:20.179Z,62.01
2018-06-11T16:29:20.220Z,60.95
2018-06-11T16:31:13.269Z,62.11
2018-06-11T16:32:13.270Z,62.40
2018-06-11T16:34:06.785Z,61.33
2018-06-11T16:35:06.849Z,62.59
2018-06-11T16:36:59.878Z,62.37
2018-06-11T16:37:59.917Z,61.79
2018-06-11T16:39:52.925Z,62.27
2018-06-11T16:40:52.985Z,61.69
2018-06-11T16:42:45.997Z,60.63
2018-06-11T16:43:46.062Z,63.14
2018-06-11T16:45:39.060Z,62.27
2018-06-11T16:46:39.126Z,61.69
2018-06-11T16:48:32.136Z,62.37
2018-06-11T16:49:32.201Z,63.43
2018-06-11T16:51:25.199Z,65.27
2018-06-11T16:52:25.265Z,65.47
2018-06-11T16:54:18.279Z,64.98
2018-06-11T16:55:18.342Z,65.47
2018-06-11T16:57:11.332Z,66.05
2018-06-11T16:58:11.411Z,65.24
2018-06-11T17:00:04.409Z,66.59
2018-06-11T17:01:04.471Z,67.85
2018-06-11T17:02:57.469Z,68.04
2018-06-11T17:03:57.540Z,67.56
2018-06-11T17:05:50.550Z,68.52
2018-06-11T17:06:50.615Z,68.43
2018-06-11T17:08:43.624Z,68.43
2018-06-11T17:09:43.690Z,68.43
2018-06-11T17:11:36.688Z,68.43
2018-06-11T17:12:36.753Z,68.62
2018-06-11T17:14:29.759Z,67.85
2018-06-11T17:15:29.818Z,68.59
2018-06-11T17:17:22.820Z,68.91
2018-06-11T17:18:22.886Z,67.33
2018-06-11T17:20:15.965Z,67.75
2018-06-11T17:21:15.962Z,67.27
2018-06-11T17:23:08.955Z,66.08
2018-06-11T17:24:09.023Z,65.59
2018-06-11T17:26:02.034Z,66.17
2018-06-11T17:27:02.093Z,66.85
2018-06-11T17:28:55.126Z,66.56
2018-06-11T17:29:55.186Z,67.52
2018-06-11T17:31:48.191Z,67.33
2018-06-11T17:32:48.230Z,67.14
2018-06-11T17:34:41.272Z,66.27
2018-06-11T17:35:41.304Z,66.56
2018-06-11T17:37:34.303Z,67.14
2018-06-11T17:38:34.373Z,67.33
2018-06-11T17:40:27.890Z,67.14
2018-06-11T17:41:27.947Z,68.20
2018-06-11T17:43:20.952Z,67.62
2018-06-11T17:44:21.016Z,68.59
2018-06-11T17:46:14.022Z,68.49
2018-06-11T17:47:14.082Z,68.30
2018-06-11T17:49:07.083Z,69.65
2018-06-11T17:50:07.150Z,69.74
2018-06-11T17:52:00.209Z,70.87
2018-06-11T17:53:00.269Z,70.20
2018-06-11T17:54:53.262Z,70.97
2018-06-11T17:55:53.300Z,71.48
2018-06-11T17:57:46.363Z,72.52
2018-06-11T17:58:46.375Z,73.03
2018-06-11T18:00:39.380Z,73.19
2018-06-11T18:01:39.454Z,73.00
2018-06-11T18:03:32.442Z,74.06
2018-06-11T18:04:32.519Z,72.80
2018-06-11T18:06:25.548Z,73.09
2018-06-11T18:07:25.574Z,72.71
2018-06-11T18:09:18.712Z,73.67
2018-06-11T18:10:18.673Z,73.96
2018-06-11T18:12:11.671Z,74.69
2018-06-11T18:13:11.751Z,74.51
2018-06-11T18:15:04.744Z,74.79
2018-06-11T18:16:04.810Z,75.37
2018-06-11T18:17:57.827Z,75.27
2018-06-11T18:18:57.888Z,75.57
2018-06-11T18:20:50.897Z,75.76
2018-06-11T18:21:50.955Z,75.85
2018-06-11T18:23:43.961Z,75.95
2018-06-11T18:24:44.029Z,76.43
2018-06-11T18:26:37.034Z,76.43
2018-06-11T18:27:37.107Z,76.20
2018-06-11T18:29:30.102Z,76.68
2018-06-11T18:30:30.172Z,76.50
2018-06-11T18:32:23.171Z,76.88
2018-06-11T18:33:23.229Z,76.68
2018-06-11T18:35:16.234Z,77.26